createdAt,value
2019-03-17T00:00:21.856Z,14.40
2019-03-17T00:02:50.775Z,8.55
2019-03-17T00:05:19.312Z,12.47
2019-03-17T00:07:47.777Z,21.87
2019-03-17T00:10:18.951Z,15.70
2019-03-17T00:12:47.414Z,11.05
2019-03-17T00:15:15.868Z,11.75
2019-03-17T00:17:44.441Z,13.53
2019-03-17T00:20:12.966Z,17.15
2019-03-17T00:22:41.455Z,11.48
2019-03-17T00:25:10.366Z,11.70
2019-03-17T00:27:38.912Z,17.45
2019-03-17T00:30:10.460Z,12.88
2019-03-17T00:32:39.018Z,14.60
2019-03-17T00:35:07.553Z,11.38
2019-03-17T00:37:36.001Z,14.65
2019-03-17T00:40:09.086Z,12.60
2019-03-17T00:42:37.535Z,13.87
2019-03-17T00:45:12.593Z,16.60
2019-03-17T00:47:41.933Z,9.50
2019-03-17T00:50:11.815Z,10.98
2019-03-17T00:52:40.276Z,10.88
2019-03-17T00:55:09.385Z,11.70
2019-03-17T00:57:37.895Z,11.12
2019-03-17T01:00:13.078Z,9.60
2019-03-17T01:02:42.920Z,13.98
2019-03-17T01:05:16.498Z,8.95
2019-03-17T01:07:46.803Z,9.08
2019-03-17T01:10:17.015Z,12.17
2019-03-17T01:12:46.255Z,9.38
2019-03-17T01:15:15.011Z,13.70
2019-03-17T01:17:44.910Z,8.85
2019-03-17T01:20:13.816Z,12.73
2019-03-17T01:22:42.283Z,10.13
2019-03-17T01:25:12.279Z,9.98
2019-03-17T01:27:40.726Z,9.90
2019-03-17T01:30:11.388Z,10.48
2019-03-17T01:32:39.881Z,14.40
2019-03-17T01:35:10.030Z,15.58
2019-03-17T01:37:38.996Z,6.85
2019-03-17T01:40:09.516Z,15.80
2019-03-17T01:42:37.994Z,14.20
2019-03-17T01:45:08.185Z,9.13
2019-03-17T01:47:38.012Z,9.90
2019-03-17T01:50:09.768Z,11.73
2019-03-17T01:52:38.227Z,13.05
2019-03-17T01:55:08.979Z,11.12
2019-03-17T01:57:37.475Z,10.15
2019-03-17T02:00:09.078Z,7.95
2019-03-17T02:02:37.638Z,9.80
2019-03-17T02:05:06.581Z,11.08
2019-03-17T02:07:35.068Z,10.40
2019-03-17T02:10:04.752Z,13.75
2019-03-17T02:12:34.752Z,15.93
2019-03-17T02:15:03.680Z,11.60
2019-03-17T02:17:32.131Z,8.33
2019-03-17T02:20:00.656Z,9.28
2019-03-17T02:22:29.211Z,13.20
2019-03-17T02:24:58.582Z,10.38
2019-03-17T02:27:27.042Z,11.73
2019-03-17T02:29:55.560Z,14.43
2019-03-17T02:32:24.840Z,12.47
2019-03-17T02:34:54.961Z,11.85
2019-03-17T02:37:23.440Z,13.15
2019-03-17T02:39:51.925Z,19.50
2019-03-17T02:42:20.712Z,13.58
2019-03-17T02:44:49.200Z,14.68
2019-03-17T02:47:17.666Z,12.33
2019-03-17T02:49:46.152Z,17.05
2019-03-17T02:52:14.597Z,11.15
2019-03-17T02:54:43.048Z,13.93
2019-03-17T02:57:11.637Z,11.60
2019-03-17T02:59:41.640Z,12.98
2019-03-17T03:02:10.117Z,13.18
2019-03-17T03:04:38.672Z,8.23
2019-03-17T03:07:07.245Z,11.12
2019-03-17T03:09:35.780Z,12.03
2019-03-17T03:12:04.711Z,15.63
2019-03-17T03:14:34.657Z,10.00
2019-03-17T03:17:03.214Z,13.08
2019-03-17T03:19:33.283Z,8.55
2019-03-17T03:22:01.744Z,12.90
2019-03-17T03:24:30.230Z,9.53
2019-03-17T03:27:00.862Z,10.50
2019-03-17T03:29:29.089Z,17.00
2019-03-17T03:31:57.543Z,14.68
2019-03-17T03:34:32.096Z,14.18
2019-03-17T03:36:56.444Z,11.90
2019-03-17T03:39:24.916Z,12.75
2019-03-17T03:41:53.396Z,11.25
2019-03-17T03:44:21.852Z,10.80
2019-03-17T03:46:50.325Z,13.90
2019-03-17T03:49:19.372Z,10.03
2019-03-17T03:51:47.832Z,12.30
2019-03-17T03:54:16.375Z,11.12
2019-03-17T03:56:45.036Z,13.03
2019-03-17T03:59:13.559Z,10.08
2019-03-17T04:01:42.349Z,13.28
2019-03-17T04:04:10.838Z,10.68
2019-03-17T04:06:41.324Z,3.17
2019-03-17T04:09:09.773Z,3.44
2019-03-17T04:11:39.311Z,6.17
2019-03-17T04:14:08.129Z,5.05
2019-03-17T04:16:39.795Z,6.42
2019-03-17T04:19:08.423Z,5.10
2019-03-17T04:21:40.744Z,10.00
2019-03-17T04:24:09.324Z,6.15
2019-03-17T04:26:39.778Z,8.63
2019-03-17T04:29:08.046Z,5.72
2019-03-17T04:31:36.494Z,7.33
2019-03-17T04:34:05.008Z,4.92
2019-03-17T04:36:40.500Z,10.43
2019-03-17T04:39:06.612Z,6.45
2019-03-17T04:41:35.109Z,6.12
2019-03-17T04:44:03.706Z,5.62
2019-03-17T04:46:32.406Z,7.08
2019-03-17T04:49:00.976Z,5.62
2019-03-17T04:51:29.915Z,0.88
2019-03-17T04:54:01.528Z,3.80
2019-03-17T04:56:29.975Z,0.65
2019-03-17T04:59:00.824Z,1.42
2019-03-17T05:01:29.285Z,2.60
2019-03-17T05:03:57.737Z,6.20
2019-03-17T05:06:26.217Z,2.80
2019-03-17T05:08:54.688Z,5.03
2019-03-17T05:11:23.182Z,0.93
2019-03-17T05:13:52.544Z,4.30
2019-03-17T05:16:20.986Z,3.08
2019-03-17T05:18:49.448Z,4.28
2019-03-17T05:21:18.008Z,1.77
2019-03-17T05:23:47.297Z,2.30
2019-03-17T05:26:15.782Z,4.97
2019-03-17T05:28:44.314Z,2.37
2019-03-17T05:31:12.774Z,5.30
2019-03-17T05:33:41.284Z,2.12
2019-03-17T05:36:09.789Z,4.37
2019-03-17T05:38:38.339Z,4.30
2019-03-17T05:41:07.077Z,2.87
2019-03-17T05:43:35.607Z,1.72
2019-03-17T05:46:04.976Z,5.03
2019-03-17T05:48:33.445Z,3.75
2019-03-17T05:51:01.914Z,4.97
2019-03-17T05:53:30.376Z,3.42
2019-03-17T05:56:00.363Z,5.80
2019-03-17T05:58:28.838Z,3.47
2019-03-17T06:00:57.289Z,2.37
2019-03-17T06:03:25.738Z,2.37
2019-03-17T06:05:54.921Z,2.80
2019-03-17T06:08:23.368Z,2.72
2019-03-17T06:10:51.824Z,3.05
2019-03-17T06:13:20.315Z,3.75
2019-03-17T06:15:48.853Z,4.83
2019-03-17T06:18:17.290Z,4.05
2019-03-17T06:20:45.843Z,2.40
2019-03-17T06:23:14.287Z,5.58
2019-03-17T06:25:43.076Z,6.05
2019-03-17T06:28:11.588Z,3.45
2019-03-17T06:30:40.053Z,5.25
2019-03-17T06:33:08.499Z,5.15
2019-03-17T06:35:37.125Z,3.92
2019-03-17T06:38:05.581Z,5.25
2019-03-17T06:40:34.026Z,4.40
2019-03-17T06:43:02.522Z,5.10
2019-03-17T06:45:32.646Z,4.37
2019-03-17T06:48:21.089Z,6.20
2019-03-17T06:50:49.571Z,5.58
2019-03-17T06:53:20.379Z,4.58
2019-03-17T06:55:50.009Z,4.37
2019-03-17T06:58:18.540Z,4.92
2019-03-17T07:00:47.015Z,3.90
2019-03-17T07:03:16.961Z,3.75
2019-03-17T07:05:45.725Z,5.83
2019-03-17T07:08:20.308Z,7.45
2019-03-17T07:10:50.415Z,5.25
2019-03-17T07:13:19.325Z,7.35
2019-03-17T07:15:47.790Z,10.08
2019-03-17T07:18:16.302Z,8.98
2019-03-17T07:20:44.827Z,6.42
2019-03-17T07:23:13.297Z,7.90
2019-03-17T07:25:41.859Z,10.25
2019-03-17T07:28:10.374Z,9.10
2019-03-17T07:30:39.874Z,12.20
2019-03-17T07:33:08.331Z,9.65
2019-03-17T07:35:36.925Z,9.95
2019-03-17T07:38:06.897Z,8.23
2019-03-17T07:40:35.599Z,8.55
2019-03-17T07:43:07.401Z,9.95
2019-03-17T07:45:36.908Z,6.08
2019-03-17T07:48:05.439Z,11.37
2019-03-17T07:50:33.972Z,9.03
2019-03-17T07:53:02.508Z,9.60
2019-03-17T07:55:31.053Z,7.55
2019-03-17T07:57:59.580Z,5.10
2019-03-17T08:00:32.274Z,2.40
2019-03-17T08:03:00.104Z,2.12
2019-03-17T08:05:28.792Z,2.77
2019-03-17T08:08:09.341Z,3.52
2019-03-17T08:10:33.128Z,5.75
2019-03-17T08:13:05.172Z,3.98
2019-03-17T08:15:35.379Z,6.33
2019-03-17T08:18:04.846Z,1.95
2019-03-17T08:20:34.799Z,4.97
2019-03-17T08:23:03.335Z,4.75
2019-03-17T08:25:31.795Z,4.20
2019-03-17T08:28:00.315Z,3.83
2019-03-17T08:30:28.803Z,3.25
2019-03-17T08:32:57.260Z,2.87
2019-03-17T08:35:25.721Z,6.40
2019-03-17T08:37:56.896Z,2.47
2019-03-17T08:40:29.987Z,4.10
2019-03-17T08:42:59.548Z,6.97
2019-03-17T08:45:28.144Z,3.35
2019-03-17T08:47:58.600Z,3.72
2019-03-17T08:50:26.763Z,4.85
2019-03-17T08:52:55.256Z,6.55
2019-03-17T08:55:23.741Z,5.60
2019-03-17T08:57:52.220Z,6.40
2019-03-17T09:00:23.721Z,3.27
2019-03-17T09:02:52.173Z,8.28
2019-03-17T09:05:20.634Z,1.82
2019-03-17T09:07:49.397Z,2.98
2019-03-17T09:10:17.832Z,4.53
2019-03-17T09:12:47.787Z,1.82
2019-03-17T09:15:16.514Z,2.33
2019-03-17T09:17:45.723Z,5.95
2019-03-17T09:20:14.784Z,1.87
2019-03-17T09:22:44.903Z,2.75
2019-03-17T09:25:15.073Z,1.47
2019-03-17T09:27:44.883Z,5.37
2019-03-17T09:30:20.416Z,3.40
2019-03-17T09:32:48.872Z,3.05
2019-03-17T09:35:20.340Z,3.43
2019-03-17T09:37:49.673Z,4.83
2019-03-17T09:40:19.698Z,4.10
2019-03-17T09:42:48.788Z,2.67
2019-03-17T09:45:17.531Z,4.67
2019-03-17T09:47:46.026Z,2.85
2019-03-17T09:50:16.422Z,4.90
2019-03-17T09:52:44.865Z,2.55
2019-03-17T09:55:15.822Z,5.08
2019-03-17T09:57:44.417Z,4.85
2019-03-17T10:00:23.292Z,7.60
2019-03-17T10:02:51.975Z,8.45
2019-03-17T10:05:22.971Z,10.20
2019-03-17T10:07:51.479Z,8.50
2019-03-17T10:10:22.657Z,10.43
2019-03-17T10:12:53.772Z,10.03
2019-03-17T10:15:26.630Z,4.97
2019-03-17T10:17:55.381Z,8.73
2019-03-17T10:20:24.008Z,5.20
2019-03-17T10:22:53.502Z,6.20
2019-03-17T10:25:22.168Z,7.62
2019-03-17T10:27:50.998Z,6.15
2019-03-17T10:30:20.960Z,7.40
2019-03-17T10:32:49.502Z,8.80
2019-03-17T10:35:17.994Z,4.67
2019-03-17T10:37:48.752Z,3.83
2019-03-17T10:40:21.163Z,3.60
2019-03-17T10:42:50.117Z,5.00
2019-03-17T10:45:18.599Z,5.35
2019-03-17T10:47:47.217Z,5.55
2019-03-17T10:50:16.833Z,4.08
2019-03-17T10:52:45.412Z,4.75
2019-03-17T10:55:14.208Z,4.63
2019-03-17T10:57:42.823Z,9.18
2019-03-17T11:00:16.112Z,5.27
2019-03-17T11:02:44.639Z,2.92
2019-03-17T11:05:13.797Z,2.02
2019-03-17T11:07:42.325Z,4.85
2019-03-17T11:10:14.352Z,4.83
2019-03-17T11:12:42.962Z,4.35
2019-03-17T11:15:19.727Z,6.15
2019-03-17T11:17:48.321Z,6.78
2019-03-17T11:20:17.037Z,6.23
2019-03-17T11:22:47.044Z,2.98
2019-03-17T11:25:17.559Z,5.45
2019-03-17T11:27:46.049Z,5.05
2019-03-17T11:30:18.349Z,2.47
2019-03-17T11:32:48.313Z,3.77
2019-03-17T11:35:20.048Z,2.90
2019-03-17T11:37:51.279Z,7.70
2019-03-17T11:40:20.559Z,2.43
2019-03-17T11:42:50.700Z,6.33
2019-03-17T11:45:20.077Z,3.75
2019-03-17T11:47:48.787Z,3.45
2019-03-17T11:50:18.812Z,3.90
2019-03-17T11:52:49.281Z,5.12
2019-03-17T11:55:18.207Z,5.72
2019-03-17T11:57:49.886Z,3.33
2019-03-17T12:00:23.275Z,6.33
2019-03-17T12:02:53.316Z,1.90
2019-03-17T12:05:21.951Z,12.00
2019-03-17T12:07:50.840Z,6.37
2019-03-17T12:10:21.798Z,5.92
2019-03-17T12:12:50.372Z,2.98
2019-03-17T12:15:24.291Z,4.70
2019-03-17T12:17:52.762Z,6.80
2019-03-17T12:20:21.370Z,8.25
2019-03-17T12:22:49.828Z,2.75
2019-03-17T12:25:18.985Z,4.60
2019-03-17T12:27:47.640Z,4.75
2019-03-17T12:30:23.838Z,3.97
2019-03-17T12:32:55.359Z,4.35
2019-03-17T12:35:23.922Z,5.63
2019-03-17T12:37:52.650Z,6.17
2019-03-17T12:40:21.500Z,9.43
2019-03-17T12:42:49.988Z,4.37
2019-03-17T12:45:19.957Z,6.37
2019-03-17T12:47:48.483Z,9.10
2019-03-17T12:50:24.552Z,6.60
2019-03-17T12:52:58.774Z,5.83
2019-03-17T12:55:37.301Z,5.50
2019-03-17T12:58:08.080Z,7.92
2019-03-17T13:00:36.658Z,5.28
2019-03-17T13:03:05.741Z,10.00
2019-03-17T13:05:34.283Z,8.90
2019-03-17T13:08:03.889Z,6.97
2019-03-17T13:10:32.485Z,6.28
2019-03-17T13:13:01.873Z,7.42
2019-03-17T13:15:30.514Z,5.75
2019-03-17T13:17:58.959Z,3.30
2019-03-17T13:20:29.587Z,5.03
2019-03-17T13:22:57.631Z,3.67
2019-03-17T13:25:27.820Z,6.40
2019-03-17T13:27:56.361Z,5.22
2019-03-17T13:30:26.432Z,4.90
2019-03-17T13:32:54.962Z,2.75
2019-03-17T13:35:23.691Z,5.50
2019-03-17T13:37:52.163Z,7.90
2019-03-17T13:40:30.190Z,16.97
2019-03-17T13:42:52.698Z,5.47
2019-03-17T13:45:21.225Z,2.70
2019-03-17T13:47:51.796Z,5.35
2019-03-17T13:50:23.806Z,4.40
2019-03-17T13:52:52.370Z,6.97
2019-03-17T13:55:20.950Z,6.72
2019-03-17T13:58:09.326Z,6.87
2019-03-17T14:00:38.628Z,9.17
2019-03-17T14:03:07.082Z,6.87
2019-03-17T14:05:35.641Z,3.37
2019-03-17T14:08:04.826Z,7.80
2019-03-17T14:10:40.876Z,3.98
2019-03-17T14:13:03.558Z,4.62
2019-03-17T14:15:32.157Z,10.53
2019-03-17T14:18:01.911Z,3.87
2019-03-17T14:20:30.518Z,4.60
2019-03-17T14:22:58.967Z,6.13
2019-03-17T14:25:35.917Z,5.35
2019-03-17T14:28:05.938Z,3.35
2019-03-17T14:30:36.020Z,5.00
2019-03-17T14:33:04.804Z,4.78
2019-03-17T14:35:34.168Z,6.28
2019-03-17T14:38:02.720Z,8.18
2019-03-17T14:40:31.179Z,3.87
2019-03-17T14:43:11.003Z,2.35
2019-03-17T14:45:39.092Z,4.75
2019-03-17T14:48:07.788Z,3.95
2019-03-17T14:50:37.450Z,4.10
2019-03-17T14:53:07.843Z,4.87
2019-03-17T14:55:36.427Z,5.70
2019-03-17T14:58:05.147Z,7.65
2019-03-17T15:00:33.601Z,6.10
2019-03-17T15:03:02.171Z,4.47
2019-03-17T15:05:31.079Z,4.60
2019-03-17T15:08:01.174Z,6.75
2019-03-17T15:10:31.208Z,3.75
2019-03-17T15:13:00.451Z,5.55
2019-03-17T15:15:29.189Z,10.43
2019-03-17T15:17:57.725Z,5.83
2019-03-17T15:20:27.495Z,5.45
2019-03-17T15:22:58.371Z,8.70
2019-03-17T15:25:26.947Z,4.55
2019-03-17T15:27:55.683Z,5.75
2019-03-17T15:30:36.650Z,8.18
2019-03-17T15:33:05.251Z,6.83
2019-03-17T15:35:33.758Z,6.47
2019-03-17T15:38:02.223Z,4.08
2019-03-17T15:40:31.754Z,4.33
2019-03-17T15:43:00.295Z,4.83
2019-03-17T15:45:31.348Z,5.22
2019-03-17T15:47:59.922Z,6.27
2019-03-17T15:50:30.223Z,5.45
2019-03-17T15:52:58.795Z,3.02
2019-03-17T15:55:27.366Z,4.28
2019-03-17T15:57:55.896Z,4.65
2019-03-17T16:00:26.595Z,6.35
2019-03-17T16:02:55.727Z,6.42
2019-03-17T16:05:24.188Z,7.50
2019-03-17T16:07:53.895Z,4.50
2019-03-17T16:10:30.535Z,6.97
2019-03-17T16:12:59.077Z,4.97
2019-03-17T16:15:28.144Z,2.87
2019-03-17T16:17:58.967Z,8.75
2019-03-17T16:20:28.244Z,5.67
2019-03-17T16:22:56.852Z,2.77
2019-03-17T16:25:30.833Z,7.22
2019-03-17T16:27:59.391Z,7.28
2019-03-17T16:30:32.258Z,4.30
2019-03-17T16:33:00.808Z,5.90
2019-03-17T16:35:29.527Z,8.03
2019-03-17T16:37:58.075Z,5.35
2019-03-17T16:40:30.739Z,4.42
2019-03-17T16:43:00.981Z,4.43
2019-03-17T16:45:38.485Z,7.65
2019-03-17T16:48:12.057Z,7.22
2019-03-17T16:50:43.520Z,6.37
2019-03-17T16:53:12.349Z,4.60
2019-03-17T16:55:41.140Z,3.98
2019-03-17T16:58:09.622Z,4.60
2019-03-17T17:00:40.636Z,4.95
2019-03-17T17:03:09.252Z,5.58
2019-03-17T17:05:38.804Z,4.87
2019-03-17T17:08:07.491Z,9.35
2019-03-17T17:10:38.194Z,7.87
2019-03-17T17:13:06.151Z,5.67
2019-03-17T17:15:35.760Z,6.22
2019-03-17T17:18:04.963Z,5.20
2019-03-17T17:20:42.178Z,6.70
2019-03-17T17:23:10.628Z,7.25
2019-03-17T17:25:39.885Z,4.85
2019-03-17T17:28:09.894Z,8.73
2019-03-17T17:30:38.375Z,4.83
2019-03-17T17:33:06.915Z,5.42
2019-03-17T17:35:35.355Z,5.20
2019-03-17T17:38:05.137Z,4.47
2019-03-17T17:40:33.697Z,8.35
2019-03-17T17:43:02.265Z,9.88
2019-03-17T17:45:30.836Z,10.10
2019-03-17T17:47:59.413Z,5.92
2019-03-17T17:50:32.332Z,10.25
2019-03-17T17:53:00.837Z,6.43
2019-03-17T17:55:29.377Z,9.05
2019-03-17T17:57:57.977Z,10.30
2019-03-17T18:00:32.352Z,4.92
2019-03-17T18:03:00.883Z,5.53
2019-03-17T18:05:29.397Z,6.75
2019-03-17T18:07:59.050Z,8.05
2019-03-17T18:10:29.172Z,7.53
2019-03-17T18:12:57.798Z,6.58
2019-03-17T18:15:33.303Z,4.78
2019-03-17T18:18:01.788Z,6.80
2019-03-17T18:20:30.320Z,6.55
2019-03-17T18:23:02.512Z,4.67
2019-03-17T18:25:32.453Z,10.15
2019-03-17T18:28:00.985Z,8.23
2019-03-17T18:30:31.047Z,10.10
2019-03-17T18:33:00.703Z,5.40
2019-03-17T18:35:29.353Z,8.35
2019-03-17T18:37:58.026Z,6.47
2019-03-17T18:40:26.836Z,9.13
2019-03-17T18:42:55.318Z,11.20
2019-03-17T18:45:25.947Z,9.20
2019-03-17T18:47:57.323Z,6.33
2019-03-17T18:50:24.867Z,10.20
2019-03-17T18:52:53.520Z,9.28
2019-03-17T18:55:23.928Z,6.15
2019-03-17T18:57:52.491Z,13.00
2019-03-17T19:00:26.489Z,8.43
2019-03-17T19:02:57.374Z,9.60
2019-03-17T19:05:25.964Z,8.28
2019-03-17T19:07:56.337Z,6.05
2019-03-17T19:10:24.880Z,5.20
2019-03-17T19:12:53.333Z,7.70
2019-03-17T19:15:22.830Z,6.47
2019-03-17T19:17:58.577Z,4.72
2019-03-17T19:20:26.113Z,6.60
2019-03-17T19:22:54.617Z,8.75
2019-03-17T19:25:28.360Z,8.93
2019-03-17T19:27:59.474Z,7.33
2019-03-17T19:30:27.994Z,12.23
2019-03-17T19:32:58.057Z,7.58
2019-03-17T19:35:26.696Z,10.15
2019-03-17T19:37:55.159Z,10.53
2019-03-17T19:40:26.088Z,6.97
2019-03-17T19:42:59.101Z,9.75
2019-03-17T19:45:27.614Z,7.90
2019-03-17T19:47:59.305Z,10.75
2019-03-17T19:50:27.893Z,10.50
2019-03-17T19:52:56.457Z,9.70
2019-03-17T19:55:28.353Z,11.28
2019-03-17T19:57:56.595Z,9.68
2019-03-17T20:00:26.892Z,9.38
2019-03-17T20:02:56.235Z,9.85
2019-03-17T20:05:24.684Z,7.85
2019-03-17T20:07:53.148Z,7.67
2019-03-17T20:10:26.990Z,8.18
2019-03-17T20:12:55.497Z,4.47
2019-03-17T20:15:24.011Z,7.22
2019-03-17T20:17:52.488Z,4.78
2019-03-17T20:20:20.982Z,7.33
2019-03-17T20:22:51.032Z,7.55
2019-03-17T20:25:19.631Z,6.43
2019-03-17T20:27:48.086Z,9.88
2019-03-17T20:30:17.945Z,7.17
2019-03-17T20:32:49.687Z,8.05
2019-03-17T20:35:37.516Z,6.35
2019-03-17T20:38:06.598Z,5.80
2019-03-17T20:40:35.041Z,5.83
2019-03-17T20:43:05.222Z,7.55
2019-03-17T20:45:34.930Z,5.22
2019-03-17T20:48:05.077Z,8.78
2019-03-17T20:50:35.316Z,10.55
2019-03-17T20:53:04.700Z,8.85
2019-03-17T20:55:33.206Z,5.83
2019-03-17T20:58:01.902Z,7.08
2019-03-17T21:00:30.427Z,6.08
2019-03-17T21:02:58.884Z,8.60
2019-03-17T21:05:28.881Z,7.00
2019-03-17T21:07:57.510Z,8.63
2019-03-17T21:10:26.700Z,9.53
2019-03-17T21:12:55.177Z,6.85
2019-03-17T21:15:23.810Z,5.35
2019-03-17T21:17:52.333Z,10.18
2019-03-17T21:20:25.134Z,8.50
2019-03-17T21:22:53.597Z,11.03
2019-03-17T21:25:22.046Z,4.67
2019-03-17T21:27:51.192Z,10.93
2019-03-17T21:30:33.353Z,12.23
2019-03-17T21:33:02.907Z,5.30
2019-03-17T21:35:31.658Z,12.28
2019-03-17T21:38:00.155Z,11.18
2019-03-17T21:40:29.411Z,12.80
2019-03-17T21:42:57.939Z,8.48
2019-03-17T21:45:27.624Z,19.00
2019-03-17T21:47:56.284Z,9.63
2019-03-17T21:50:25.061Z,12.55
2019-03-17T21:52:53.514Z,14.53
2019-03-17T21:55:23.576Z,12.10
2019-03-17T21:57:52.011Z,9.50
2019-03-17T22:00:22.962Z,21.20
2019-03-17T22:02:54.731Z,11.57
2019-03-17T22:05:22.478Z,12.63
2019-03-17T22:07:51.809Z,9.80
2019-03-17T22:10:24.545Z,8.98
2019-03-17T22:12:53.026Z,10.40
2019-03-17T22:15:21.472Z,20.60
2019-03-17T22:17:49.963Z,10.28
2019-03-17T22:20:19.328Z,16.03
2019-03-17T22:22:47.815Z,10.90
2019-03-17T22:25:16.987Z,9.00
2019-03-17T22:27:45.524Z,14.28
2019-03-17T22:30:17.195Z,11.40
2019-03-17T22:32:45.659Z,8.43
2019-03-17T22:35:15.780Z,7.65
2019-03-17T22:37:44.431Z,13.08
2019-03-17T22:40:14.925Z,11.30
2019-03-17T22:42:43.459Z,11.88
2019-03-17T22:45:16.009Z,11.78
2019-03-17T22:47:44.603Z,12.70
2019-03-17T22:50:17.348Z,7.80
2019-03-17T22:52:45.873Z,14.60
2019-03-17T22:55:14.729Z,9.13
2019-03-17T22:57:43.307Z,15.20
2019-03-17T23:00:37.339Z,10.47
2019-03-17T23:03:07.432Z,10.00
2019-03-17T23:05:35.886Z,12.50
2019-03-17T23:08:05.781Z,12.35
2019-03-17T23:10:35.143Z,10.75
2019-03-17T23:13:06.022Z,12.47
2019-03-17T23:15:35.891Z,9.60
2019-03-17T23:18:06.669Z,9.83
2019-03-17T23:20:37.510Z,13.38
2019-03-17T23:23:06.952Z,10.98
2019-03-17T23:25:36.349Z,6.83
2019-03-17T23:28:04.933Z,18.30
2019-03-17T23:30:33.395Z,9.15
2019-03-17T23:33:01.876Z,11.30
2019-03-17T23:35:30.443Z,8.55
2019-03-17T23:37:58.926Z,5.92
2019-03-17T23:40:27.381Z,9.80
2019-03-17T23:42:55.835Z,14.73
2019-03-17T23:45:24.612Z,7.17
2019-03-17T23:47:53.057Z,8.18
2019-03-17T23:50:21.497Z,6.67
2019-03-17T23:52:50.008Z,13.13
2019-03-17T23:55:18.466Z,7.50
2019-03-17T23:57:46.923Z,8.35
